Terminal Aerodrome Forecast
Issued by NWS

Home | Current Version | Previous Version | Text Only | Print | Product List | Glossary On
Versions: 1 2 3 4 5 6 7 8 9 10 11 12 13 14 15 16 17 18 19 20 21 22 23 24 25 26 27
000
FTAK31 PAFA 311131
TAFAMC
TAF
PAMC 311131Z 3112/0112 VRB03KT P6SM SCT120 BKN200
     FM312200 22005KT P6SM VCSH SCT070 BKN120
     FM010800 24007KT P6SM -RA SCT025 OVC050=

USA.gov is the U.S. government's official web portal to all federal, state and local government web resources and services.